Atterbury, IL

1:08 AM CST on February 01, 2015 (GMT -0600)
North Petersburg | Change Station
CLOSE
Current Station
Personal Weather Station
Location: Petersburg, IL
Elevation: 597 ft
Nearby Weather Stations
Active Advisory: Winter Storm Warning

Elev 597 ft 40.03 °N, 89.85 °W | Updated 4 seconds ago

Overcast
Overcast
33.5 °F
Feels Like 34 °F
N
0.0
Wind Variable Wind from ESE
Gusts 4.0 mph

Today
High -- | Low -- °F
--% Chance of Precip.
Yesterday
High -- | Low -- °F
Precip. -- in
7:08 AM 5:18 PM
Waxing Gibbous, 93% visible
Pressure 30.04 in
Visibility 10.0 miles
Clouds Overcast 4300 ft
Windchill 34 °F
Dew Point 31 °F
Humidity 92%
Rainfall 0.04 in
Snow Depth Not available.
UV 0 out of 12
Pollen .10 out of 12
Air Quality Not available.
Flu Activity Not available.
METAR KSPI 010652Z 13010KT 10SM OVC043 02/00 A3003 RMK AO2 RAE11B19E28 SLP172 P0001 T00170000

More Conditions Fewer Conditions

Pressure 30.04 in
Visibility 10.0 miles
Clouds Overcast 4300 ft
Windchill 34 °F
Dew Point 31 °F
Humidity 92%
Rainfall 0.04 in
Snow Depth Not available.
UV 0 out of 12
Pollen .10 out of 12
Air Quality Not available.
Flu Activity Not available.
METAR KSPI 010652Z 13010KT 10SM OVC043 02/00 A3003 RMK AO2 RAE11B19E28 SLP172 P0001 T00170000

More Conditions Fewer Conditions

10-Day Weather Forecast

Almanac

Astronomy

Feb. 01, 2015 Rise Set
Actual Time
Civil Twilight
Nautical Twilight
Astronomical Twilight
Moon
Length of Visible Light
Length of Day
Tomorrow will be .
, % of the Moon is Illuminated

Today's Extremes

State Highs State Lows

Community

WunderPhotos

Upload Photos

1,792,325 photos uploaded!

WunderBlogs® & News

Nearby

Air Quality

  Air Quality AQ Index Pollutant
Not available.

Snow Depth

Station Depth Elevation

Earthquake Activity

City Distance Mag. Time & Date
Minimum magnitude displayed is 2.5.

Coastal Water Temperatures

Place Temperature

Nearby Weather Stations